Time;durP1;ratioP1;P1;durP2;ratioP2;P2;SDS_P1;SDS_P2;PMS_P1;PMS_P2;Temp;Humidity;BMP_temperature;BMP_pressure;BME280_temperature;BME280_humidity;BME280_pressure;Samples;Min_cycle;Max_cycle;Signal;HPM_P1;HPM_P2
2022/11/06 00:00:29;;;;;;;;;;;;;;;;;;6226333;22;19915;-90
2022/11/06 00:02:55;;;;;;;;;;;;;;;;;;6225828;22;19911;-90
2022/11/06 00:08:06;;;;;;;;;;;;;;;;;;6251749;22;19911;-90
2022/11/06 00:10:32;;;;;;;;;;;;;;;;;;6250739;22;19917;-90
2022/11/06 00:12:58;;;;;;;;;;;;;;;;;;6225417;22;19955;-90
2022/11/06 00:15:24;;;;;;;;;;;;;;;;;;6224915;22;19915;-90
2022/11/06 00:17:50;;;;;;;;;;;;;;;;;;6250249;22;20369;-90
2022/11/06 00:20:15;;;;;;;;;;;;;;;;;;6250571;22;19918;-90
2022/11/06 00:22:41;;;;;;;;;;;;;;;;;;6250951;22;19911;-90
2022/11/06 00:25:07;;;;;;;;;;;;;;;;;;6225136;22;19956;-90
2022/11/06 00:27:33;;;;;;;;;;;;;;;;;;6224987;22;19985;-91
2022/11/06 00:29:59;;;;;;;;;;;;;;;;;;6225354;22;19911;-89
2022/11/06 00:32:26;;;;;;;;;;;;;;;;;;6250848;22;20270;-90
2022/11/06 00:34:52;;;;;;;;;;;;;;;;;;6224849;22;19990;-89
2022/11/06 00:37:17;;;;;;;;;;;;;;;;;;6224297;22;19911;-90
2022/11/06 00:39:43;;;;;;;;;;;;;;;;;;6225272;22;19974;-90
2022/11/06 00:42:09;;;;;;;;;;;;;;;;;;6250731;22;19912;-89
2022/11/06 00:44:35;;;;;;;;;;;;;;;;;;6251088;22;19918;-90
2022/11/06 00:47:01;;;;;;;;;;;;;;;;;;6225572;22;19996;-90
2022/11/06 00:49:27;;;;;;;;;;;;;;;;;;6225257;22;19912;-90
2022/11/06 00:51:53;;;;;;;;;;;;;;;;;;6225119;22;19998;-90
2022/11/06 00:54:19;;;;;;;;;;;;;;;;;;6250430;22;19911;-90
2022/11/06 00:56:45;;;;;;;;;;;;;;;;;;6225005;22;19915;-90
2022/11/06 00:59:12;;;;;;;;;;;;;;;;;;6225274;22;19911;-90
2022/11/06 01:01:38;;;;;;;;;;;;;;;;;;6220597;23;20327;-91
2022/11/06 01:04:04;;;;;;;;;;;;;;;;;;6246168;23;19957;-90
2022/11/06 01:06:29;;;;;;;;;;;;;;;;;;6245570;22;19911;-91
2022/11/06 01:08:55;;;;;;;;;;;;;;;;;;6219944;23;19912;-90
2022/11/06 01:11:21;;;;;;;;;;;;;;;;;;6219809;23;19990;-90
2022/11/06 01:13:47;;;;;;;;;;;;;;;;;;6220419;23;19962;-90
2022/11/06 01:16:13;;;;;;;;;;;;;;;;;;6219867;22;20253;-90
2022/11/06 01:18:39;;;;;;;;;;;;;;;;;;6219909;23;19911;-90
2022/11/06 01:21:05;;;;;;;;;;;;;;;;;;6220210;23;19918;-91
2022/11/06 01:23:31;;;;;;;;;;;;;;;;;;6219982;23;19982;-91
2022/11/06 01:25:57;;;;;;;;;;;;;;;;;;6220207;23;19922;-91
2022/11/06 01:28:23;;;;;;;;;;;;;;;;;;6219852;23;19911;-91
2022/11/06 01:30:49;;;;;;;;;;;;;;;;;;6194938;23;20343;-90
2022/11/06 01:33:15;;;;;;;;;;;;;;;;;;6195253;23;19920;-91
2022/11/06 01:35:41;;;;;;;;;;;;;;;;;;6220213;23;20404;-91
2022/11/06 01:38:07;;;;;;;;;;;;;;;;;;6244938;22;20376;-91
2022/11/06 01:40:33;;;;;;;;;;;;;;;;;;6220187;23;20245;-91
2022/11/06 01:42:59;;;;;;;;;;;;;;;;;;6220790;23;19911;-90
2022/11/06 01:45:25;;;;;;;;;;;;;;;;;;6220600;23;19923;-91
2022/11/06 01:47:50;;;;;;;;;;;;;;;;;;6220171;23;19911;-90
2022/11/06 01:50:17;;;;;;;;;;;;;;;;;;6220213;23;20369;-90
2022/11/06 01:52:43;;;;;;;;;;;;;;;;;;6245017;23;19923;-90
2022/11/06 01:55:09;;;;;;;;;;;;;;;;;;6219408;23;19911;-90
2022/11/06 01:57:35;;;;;;;;;;;;;;;;;;6219905;23;19950;-91
2022/11/06 02:00:01;;;;;;;;;;;;;;;;;;6219522;23;19923;-90
2022/11/06 02:02:27;;;;;;;;;;;;;;;;;;6220236;23;19946;-91
2022/11/06 02:04:53;;;;;;;;;;;;;;;;;;6220481;23;19919;-90
2022/11/06 02:07:19;;;;;;;;;;;;;;;;;;6245643;22;19915;-90
2022/11/06 02:09:45;;;;;;;;;;;;;;;;;;6220017;23;19915;-92
2022/11/06 02:12:11;;;;;;;;;;;;;;;;;;6219613;23;20289;-91
2022/11/06 02:14:37;;;;;;;;;;;;;;;;;;6220019;23;20325;-90
2022/11/06 02:17:03;;;;;;;;;;;;;;;;;;6219942;23;19919;-90
2022/11/06 02:19:28;;;;;;;;;;;;;;;;;;6219772;23;19911;-91
2022/11/06 02:21:54;;;;;;;;;;;;;;;;;;6220271;23;19921;-91
2022/11/06 02:24:20;;;;;;;;;;;;;;;;;;6219482;23;19971;-90
2022/11/06 02:26:46;;;;;;;;;;;;;;;;;;6220239;23;19912;-91
2022/11/06 02:29:12;;;;;;;;;;;;;;;;;;6219756;23;19912;-90
2022/11/06 02:31:38;;;;;;;;;;;;;;;;;;6219422;23;19916;-90
2022/11/06 02:34:04;;;;;;;;;;;;;;;;;;6194525;23;19912;-89
2022/11/06 02:36:30;;;;;;;;;;;;;;;;;;6220251;23;19911;-90
2022/11/06 02:38:56;;;;;;;;;;;;;;;;;;6246163;23;19954;-90
2022/11/06 02:41:22;;;;;;;;;;;;;;;;;;6220971;23;19919;-90
2022/11/06 02:43:47;;;;;;;;;;;;;;;;;;6221920;23;19919;-88
2022/11/06 02:46:13;;;;;;;;;;;;;;;;;;6246432;22;19911;-89
2022/11/06 02:48:40;;;;;;;;;;;;;;;;;;6221952;23;19994;-90
2022/11/06 02:51:06;;;;;;;;;;;;;;;;;;6221700;23;19911;-89
2022/11/06 02:53:32;;;;;;;;;;;;;;;;;;6221360;23;20257;-90
2022/11/06 02:55:58;;;;;;;;;;;;;;;;;;6246811;23;19912;-89
2022/11/06 02:58:24;;;;;;;;;;;;;;;;;;6221193;23;19922;-88
2022/11/06 03:00:50;;;;;;;;;;;;;;;;;;6246375;23;20346;-89
2022/11/06 03:03:16;;;;;;;;;;;;;;;;;;6220956;23;19911;-89
2022/11/06 03:05:42;;;;;;;;;;;;;;;;;;6221534;23;19934;-90
2022/11/06 03:08:08;;;;;;;;;;;;;;;;;;6221165;23;20233;-89
2022/11/06 03:10:34;;;;;;;;;;;;;;;;;;6195862;23;20351;-89
2022/11/06 03:13:00;;;;;;;;;;;;;;;;;;6220459;23;19994;-91
2022/11/06 03:15:26;;;;;;;;;;;;;;;;;;6220775;23;19982;-89
2022/11/06 03:17:52;;;;;;;;;;;;;;;;;;6221832;23;19912;-89
2022/11/06 03:20:18;;;;;;;;;;;;;;;;;;6221957;23;20280;-89
2022/11/06 03:22:44;;;;;;;;;;;;;;;;;;6249254;23;19919;-88
2022/11/06 03:25:09;;;;;;;;;;;;;;;;;;6221469;23;19911;-90
2022/11/06 03:27:35;;;;;;;;;;;;;;;;;;6220437;23;20333;-90
2022/11/06 03:30:02;;;;;;;;;;;;;;;;;;6220694;23;19986;-88
2022/11/06 03:32:28;;;;;;;;;;;;;;;;;;6220801;23;19916;-90
2022/11/06 03:34:53;;;;;;;;;;;;;;;;;;6195888;23;19938;-89
2022/11/06 03:37:19;;;;;;;;;;;;;;;;;;6221119;23;19915;-89
2022/11/06 03:39:45;;;;;;;;;;;;;;;;;;6246376;23;19912;-89
2022/11/06 03:42:11;;;;;;;;;;;;;;;;;;6221133;23;19918;-89
2022/11/06 03:44:37;;;;;;;;;;;;;;;;;;6220549;23;19922;-89
2022/11/06 03:47:03;;;;;;;;;;;;;;;;;;6220925;23;19911;-90
2022/11/06 03:49:29;;;;;;;;;;;;;;;;;;6195780;23;19934;-89
2022/11/06 03:51:55;;;;;;;;;;;;;;;;;;6196068;23;20293;-90
2022/11/06 03:54:21;;;;;;;;;;;;;;;;;;6221804;23;19951;-90
2022/11/06 03:56:47;;;;;;;;;;;;;;;;;;6246336;22;19918;-90
2022/11/06 03:59:13;;;;;;;;;;;;;;;;;;6221142;23;19953;-90
2022/11/06 04:01:39;;;;;;;;;;;;;;;;;;6221016;22;19922;-90
2022/11/06 04:04:05;;;;;;;;;;;;;;;;;;6225793;22;20302;-91
2022/11/06 04:06:31;;;;;;;;;;;;;;;;;;6225986;22;19918;-91
2022/11/06 04:14:26;;;;;;;;;;;;;;;;;;6252027;22;19911;-90
2022/11/06 04:16:52;;;;;;;;;;;;;;;;;;6226112;22;19917;-90
2022/11/06 04:19:18;;;;;;;;;;;;;;;;;;6225791;22;20384;-90
2022/11/06 04:21:44;;;;;;;;;;;;;;;;;;6251177;22;19918;-91
2022/11/06 04:26:58;;;;;;;;;;;;;;;;;;6251334;22;20311;-90
2022/11/06 04:29:23;;;;;;;;;;;;;;;;;;6251572;22;19961;-90
2022/11/06 04:31:49;;;;;;;;;;;;;;;;;;6225606;22;19915;-90
2022/11/06 04:34:15;;;;;;;;;;;;;;;;;;6225872;22;19911;-91
2022/11/06 04:36:41;;;;;;;;;;;;;;;;;;6226122;22;19918;-90
2022/11/06 04:39:07;;;;;;;;;;;;;;;;;;6226407;22;20086;-90
2022/11/06 04:41:33;;;;;;;;;;;;;;;;;;6226792;22;19943;-90
2022/11/06 04:43:59;;;;;;;;;;;;;;;;;;6226888;22;19938;-90
2022/11/06 04:46:25;;;;;;;;;;;;;;;;;;6227448;22;19972;-91
2022/11/06 04:48:51;;;;;;;;;;;;;;;;;;6228022;22;20421;-90
2022/11/06 04:51:18;;;;;;;;;;;;;;;;;;6226817;22;19911;-90
2022/11/06 04:53:44;;;;;;;;;;;;;;;;;;6227681;22;19915;-90
2022/11/06 04:56:10;;;;;;;;;;;;;;;;;;6253137;22;19918;-90
2022/11/06 04:58:37;;;;;;;;;;;;;;;;;;6234421;22;19911;-91
2022/11/06 05:01:03;;;;;;;;;;;;;;;;;;6241954;22;20198;-90
2022/11/06 05:03:29;;;;;;;;;;;;;;;;;;6241655;22;20005;-90
2022/11/06 05:05:55;;;;;;;;;;;;;;;;;;6242030;22;19915;-90
2022/11/06 05:08:21;;;;;;;;;;;;;;;;;;6242040;22;19989;-89
2022/11/06 05:10:46;;;;;;;;;;;;;;;;;;6240605;22;19933;-90
2022/11/06 05:13:12;;;;;;;;;;;;;;;;;;6240199;22;19919;-90
2022/11/06 05:15:38;;;;;;;;;;;;;;;;;;6239111;22;19917;-91
2022/11/06 05:18:04;;;;;;;;;;;;;;;;;;6237643;22;19910;-90
2022/11/06 05:20:30;;;;;;;;;;;;;;;;;;6238797;22;20194;-90
2022/11/06 05:22:59;;;;;;;;;;;;;;;;;;6237356;22;19911;-88
2022/11/06 05:25:25;;;;;;;;;;;;;;;;;;6262578;22;19915;-89
2022/11/06 05:27:51;;;;;;;;;;;;;;;;;;6238489;22;19922;-90
2022/11/06 05:30:17;;;;;;;;;;;;;;;;;;6253169;22;19911;-89
2022/11/06 05:32:43;;;;;;;;;;;;;;;;;;6224146;22;19915;-89
2022/11/06 05:35:09;;;;;;;;;;;;;;;;;;6223867;22;19911;-89
2022/11/06 05:37:34;;;;;;;;;;;;;;;;;;6249205;22;20363;-89
2022/11/06 05:40:00;;;;;;;;;;;;;;;;;;6224543;22;19918;-89
2022/11/06 05:42:26;;;;;;;;;;;;;;;;;;6224321;22;19911;-91
2022/11/06 05:44:52;;;;;;;;;;;;;;;;;;6224501;22;19911;-91
2022/11/06 05:47:18;;;;;;;;;;;;;;;;;;6224760;22;20002;-91
2022/11/06 05:49:44;;;;;;;;;;;;;;;;;;6224553;22;19910;-91
2022/11/06 05:52:10;;;;;;;;;;;;;;;;;;6224497;22;19923;-91
2022/11/06 05:54:36;;;;;;;;;;;;;;;;;;6224433;22;19911;-91
2022/11/06 05:57:02;;;;;;;;;;;;;;;;;;6224698;22;19915;-92
2022/11/06 05:59:28;;;;;;;;;;;;;;;;;;6224416;22;19996;-91
2022/11/06 06:01:54;;;;;;;;;;;;;;;;;;6224036;22;19915;-89
2022/11/06 06:04:20;;;;;;;;;;;;;;;;;;6223958;22;19990;-89
2022/11/06 06:06:46;;;;;;;;;;;;;;;;;;6224126;22;19911;-89
2022/11/06 06:09:11;;;;;;;;;;;;;;;;;;6224302;22;19911;-89
2022/11/06 06:11:37;;;;;;;;;;;;;;;;;;6224454;22;19986;-89
2022/11/06 06:14:03;;;;;;;;;;;;;;;;;;6224191;22;19986;-89
2022/11/06 06:16:29;;;;;;;;;;;;;;;;;;6226019;22;19911;-89
2022/11/06 06:18:55;;;;;;;;;;;;;;;;;;6226014;22;19915;-89
2022/11/06 06:21:21;;;;;;;;;;;;;;;;;;6226185;22;19911;-90
2022/11/06 06:23:47;;;;;;;;;;;;;;;;;;6226338;22;19911;-90
2022/11/06 06:26:13;;;;;;;;;;;;;;;;;;6226308;22;19938;-91
2022/11/06 06:28:39;;;;;;;;;;;;;;;;;;6227045;22;19911;-90
2022/11/06 06:31:05;;;;;;;;;;;;;;;;;;6253417;22;20332;-90
2022/11/06 06:33:31;;;;;;;;;;;;;;;;;;6226675;22;19966;-90
2022/11/06 06:35:56;;;;;;;;;;;;;;;;;;6251342;22;19946;-90
2022/11/06 06:38:22;;;;;;;;;;;;;;;;;;6226412;22;19911;-89
2022/11/06 06:40:48;;;;;;;;;;;;;;;;;;6252611;22;19911;-91
2022/11/06 06:43:14;;;;;;;;;;;;;;;;;;6227352;22;19986;-90
2022/11/06 06:45:42;;;;;;;;;;;;;;;;;;6251557;22;19969;-90
2022/11/06 06:48:08;;;;;;;;;;;;;;;;;;6226172;22;19927;-90
2022/11/06 06:50:34;;;;;;;;;;;;;;;;;;6226965;22;19911;-90
2022/11/06 06:53:00;;;;;;;;;;;;;;;;;;6225715;22;19923;-90
2022/11/06 06:55:26;;;;;;;;;;;;;;;;;;6226291;22;19915;-89
2022/11/06 06:57:53;;;;;;;;;;;;;;;;;;6225580;22;19946;-90
2022/11/06 07:00:19;;;;;;;;;;;;;;;;;;6225875;22;19967;-90
2022/11/06 07:02:45;;;;;;;;;;;;;;;;;;6225835;22;19911;-91
2022/11/06 07:05:11;;;;;;;;;;;;;;;;;;6225973;22;20216;-89
2022/11/06 07:07:37;;;;;;;;;;;;;;;;;;6228720;22;19938;-92
2022/11/06 07:10:03;;;;;;;;;;;;;;;;;;6251120;22;19915;-90
2022/11/06 07:12:29;;;;;;;;;;;;;;;;;;6250886;22;19922;-90
2022/11/06 07:14:56;;;;;;;;;;;;;;;;;;6225301;22;19919;-91
2022/11/06 07:17:22;;;;;;;;;;;;;;;;;;6225489;22;19920;-90
2022/11/06 07:19:48;;;;;;;;;;;;;;;;;;6225399;22;19911;-90
2022/11/06 07:22:14;;;;;;;;;;;;;;;;;;6224607;22;19985;-90
2022/11/06 07:24:41;;;;;;;;;;;;;;;;;;6225713;22;20240;-89
2022/11/06 07:27:07;;;;;;;;;;;;;;;;;;6225486;22;20325;-91
2022/11/06 07:29:33;;;;;;;;;;;;;;;;;;6250447;22;19972;-90
2022/11/06 07:31:58;;;;;;;;;;;;;;;;;;6225590;22;19954;-90
2022/11/06 07:34:24;;;;;;;;;;;;;;;;;;6225308;22;20407;-91
2022/11/06 07:36:50;;;;;;;;;;;;;;;;;;6225256;22;19962;-89
2022/11/06 07:39:16;;;;;;;;;;;;;;;;;;6225801;22;19911;-89
2022/11/06 07:41:42;;;;;;;;;;;;;;;;;;6250705;22;19911;-89
2022/11/06 07:44:08;;;;;;;;;;;;;;;;;;6225349;22;20218;-88
2022/11/06 07:46:34;;;;;;;;;;;;;;;;;;6225260;22;19911;-88
2022/11/06 07:49:00;;;;;;;;;;;;;;;;;;6225522;22;19920;-89
2022/11/06 07:51:26;;;;;;;;;;;;;;;;;;6223194;22;19911;-90
2022/11/06 07:53:52;;;;;;;;;;;;;;;;;;6224941;22;19937;-89
2022/11/06 07:56:18;;;;;;;;;;;;;;;;;;6224740;22;20321;-88
2022/11/06 07:58:44;;;;;;;;;;;;;;;;;;6224965;22;19911;-89
2022/11/06 08:01:10;;;;;;;;;;;;;;;;;;6224333;22;19973;-89
2022/11/06 08:03:36;;;;;;;;;;;;;;;;;;6224847;22;19972;-89
2022/11/06 08:06:02;;;;;;;;;;;;;;;;;;6224467;22;20355;-90
2022/11/06 08:08:28;;;;;;;;;;;;;;;;;;6224624;22;19911;-89
2022/11/06 08:10:54;;;;;;;;;;;;;;;;;;6225186;22;19986;-89
2022/11/06 08:13:20;;;;;;;;;;;;;;;;;;6224700;22;19919;-91
2022/11/06 08:15:46;;;;;;;;;;;;;;;;;;6225232;22;19911;-91
2022/11/06 08:18:11;;;;;;;;;;;;;;;;;;6225280;22;19918;-91
2022/11/06 08:20:37;;;;;;;;;;;;;;;;;;6225085;22;19943;-90
2022/11/06 08:23:03;;;;;;;;;;;;;;;;;;6224778;22;19934;-89
2022/11/06 08:25:29;;;;;;;;;;;;;;;;;;6250120;22;19911;-90
2022/11/06 08:27:55;;;;;;;;;;;;;;;;;;6224851;22;20017;-89
2022/11/06 08:30:21;;;;;;;;;;;;;;;;;;6225045;22;19918;-90
2022/11/06 08:32:47;;;;;;;;;;;;;;;;;;6224893;22;19963;-91
2022/11/06 08:35:13;;;;;;;;;;;;;;;;;;6224658;22;19919;-90
2022/11/06 08:37:39;;;;;;;;;;;;;;;;;;6224962;22;19918;-90
2022/11/06 08:40:05;;;;;;;;;;;;;;;;;;6224353;22;19915;-90
2022/11/06 08:42:31;;;;;;;;;;;;;;;;;;6225091;22;19911;-90
2022/11/06 08:44:56;;;;;;;;;;;;;;;;;;6225327;22;19911;-90
2022/11/06 08:47:22;;;;;;;;;;;;;;;;;;6225009;22;20333;-90
2022/11/06 08:49:48;;;;;;;;;;;;;;;;;;6224546;22;19953;-90
2022/11/06 08:52:14;;;;;;;;;;;;;;;;;;6250452;22;19926;-90
2022/11/06 08:54:40;;;;;;;;;;;;;;;;;;6225368;22;19911;-90
2022/11/06 08:57:06;;;;;;;;;;;;;;;;;;6224289;22;19911;-91
2022/11/06 08:59:32;;;;;;;;;;;;;;;;;;6224985;22;19957;-89
2022/11/06 09:01:58;;;;;;;;;;;;;;;;;;6249467;22;20240;-89
2022/11/06 09:04:24;;;;;;;;;;;;;;;;;;6249431;22;19914;-88
2022/11/06 09:06:50;;;;;;;;;;;;;;;;;;6249503;22;19911;-90
2022/11/06 09:09:16;;;;;;;;;;;;;;;;;;6224171;22;20043;-91
2022/11/06 09:11:42;;;;;;;;;;;;;;;;;;6224102;22;19912;-88
2022/11/06 09:14:08;;;;;;;;;;;;;;;;;;6224188;22;20287;-90
2022/11/06 09:16:34;;;;;;;;;;;;;;;;;;6223917;22;20239;-89
2022/11/06 09:19:00;;;;;;;;;;;;;;;;;;6248530;22;19950;-89
2022/11/06 09:21:26;;;;;;;;;;;;;;;;;;6223803;22;19911;-89
2022/11/06 09:23:52;;;;;;;;;;;;;;;;;;6224027;22;19918;-89
2022/11/06 09:26:18;;;;;;;;;;;;;;;;;;6249153;22;20280;-89
2022/11/06 09:28:44;;;;;;;;;;;;;;;;;;6249871;22;19911;-88
2022/11/06 09:31:09;;;;;;;;;;;;;;;;;;6224589;22;19911;-89
2022/11/06 09:33:35;;;;;;;;;;;;;;;;;;6223476;22;19915;-89
2022/11/06 09:36:01;;;;;;;;;;;;;;;;;;6223986;22;19911;-89
2022/11/06 09:38:27;;;;;;;;;;;;;;;;;;6249143;22;19915;-90
2022/11/06 09:40:53;;;;;;;;;;;;;;;;;;6223927;22;19911;-89
2022/11/06 09:43:19;;;;;;;;;;;;;;;;;;6223809;22;19989;-90
2022/11/06 09:45:45;;;;;;;;;;;;;;;;;;6224749;22;19990;-90
2022/11/06 09:48:11;;;;;;;;;;;;;;;;;;6224169;22;19947;-87
2022/11/06 09:50:37;;;;;;;;;;;;;;;;;;6251355;22;19915;-88
2022/11/06 09:53:05;;;;;;;;;;;;;;;;;;6225809;22;19922;-88
2022/11/06 09:55:31;;;;;;;;;;;;;;;;;;6225685;22;19911;-88
2022/11/06 09:57:57;;;;;;;;;;;;;;;;;;6225118;22;20316;-88
2022/11/06 10:00:23;;;;;;;;;;;;;;;;;;6250703;22;19947;-88
2022/11/06 10:02:49;;;;;;;;;;;;;;;;;;6225355;22;19911;-88
2022/11/06 10:05:15;;;;;;;;;;;;;;;;;;6225828;22;19915;-88
2022/11/06 10:07:40;;;;;;;;;;;;;;;;;;6225850;22;19978;-87
2022/11/06 10:10:06;;;;;;;;;;;;;;;;;;6225865;22;19911;-87
2022/11/06 10:12:32;;;;;;;;;;;;;;;;;;6225333;22;19915;-88
2022/11/06 10:14:58;;;;;;;;;;;;;;;;;;6225407;22;19911;-88
2022/11/06 10:17:24;;;;;;;;;;;;;;;;;;6250487;22;19915;-88
2022/11/06 10:19:50;;;;;;;;;;;;;;;;;;6225977;22;19911;-88
2022/11/06 10:22:16;;;;;;;;;;;;;;;;;;6250732;22;19918;-89
2022/11/06 10:24:42;;;;;;;;;;;;;;;;;;6225387;22;19911;-89
2022/11/06 10:27:08;;;;;;;;;;;;;;;;;;6250469;22;19926;-89
2022/11/06 10:29:34;;;;;;;;;;;;;;;;;;6251418;22;20017;-90
2022/11/06 10:32:00;;;;;;;;;;;;;;;;;;6224895;22;19994;-89
2022/11/06 10:34:27;;;;;;;;;;;;;;;;;;6225865;22;20328;-88
2022/11/06 10:36:53;;;;;;;;;;;;;;;;;;6225021;22;19911;-89
2022/11/06 10:39:19;;;;;;;;;;;;;;;;;;6251008;22;20012;-89
2022/11/06 10:41:44;;;;;;;;;;;;;;;;;;6250968;22;19922;-90
2022/11/06 10:44:10;;;;;;;;;;;;;;;;;;6250819;22;19911;-89
2022/11/06 10:46:36;;;;;;;;;;;;;;;;;;6225725;22;20308;-89
2022/11/06 10:49:02;;;;;;;;;;;;;;;;;;6250566;22;19918;-90
2022/11/06 10:51:28;;;;;;;;;;;;;;;;;;6251228;22;19918;-91
2022/11/06 10:53:54;;;;;;;;;;;;;;;;;;6226428;22;19919;-91
2022/11/06 10:56:20;;;;;;;;;;;;;;;;;;6225905;22;20352;-94
2022/11/06 10:58:46;;;;;;;;;;;;;;;;;;6225776;22;20313;-89
2022/11/06 11:01:12;;;;;;;;;;;;;;;;;;6224483;22;19919;-90
2022/11/06 11:03:38;;;;;;;;;;;;;;;;;;6224600;22;20283;-88
2022/11/06 11:06:04;;;;;;;;;;;;;;;;;;6225165;22;19939;-89
2022/11/06 11:08:30;;;;;;;;;;;;;;;;;;6225069;22;19961;-87
2022/11/06 11:10:56;;;;;;;;;;;;;;;;;;6225216;22;20320;-90
2022/11/06 11:13:22;;;;;;;;;;;;;;;;;;6225002;22;19915;-89
2022/11/06 11:15:48;;;;;;;;;;;;;;;;;;6250167;22;19911;-90
2022/11/06 11:18:14;;;;;;;;;;;;;;;;;;6223930;22;19938;-90
2022/11/06 11:20:40;;;;;;;;;;;;;;;;;;6225642;22;20248;-92
2022/11/06 11:23:06;;;;;;;;;;;;;;;;;;6226004;22;19950;-91
2022/11/06 11:25:32;;;;;;;;;;;;;;;;;;6225853;22;19935;-93
2022/11/06 11:27:58;;;;;;;;;;;;;;;;;;6225573;22;19911;-91
2022/11/06 11:30:25;;;;;;;;;;;;;;;;;;6225944;22;19918;-92
2022/11/06 11:32:51;;;;;;;;;;;;;;;;;;6225625;22;19922;-91
2022/11/06 11:35:17;;;;;;;;;;;;;;;;;;6226243;22;20240;-92
2022/11/06 11:37:42;;;;;;;;;;;;;;;;;;6225711;22;19911;-93
2022/11/06 11:40:08;;;;;;;;;;;;;;;;;;6226069;22;19911;-92
2022/11/06 11:42:34;;;;;;;;;;;;;;;;;;6251117;22;19911;-92
2022/11/06 11:45:00;;;;;;;;;;;;;;;;;;6225464;22;19918;-92
2022/11/06 11:47:26;;;;;;;;;;;;;;;;;;6226386;22;19957;-92
2022/11/06 11:49:52;;;;;;;;;;;;;;;;;;6226326;22;19899;-93
2022/11/06 11:52:18;;;;;;;;;;;;;;;;;;6226290;22;19950;-93
2022/11/06 11:54:44;;;;;;;;;;;;;;;;;;6225135;22;19918;-91
2022/11/06 11:57:10;;;;;;;;;;;;;;;;;;6249998;22;19911;-91
2022/11/06 11:59:39;;;;;;;;;;;;;;;;;;6225729;22;19982;-91
2022/11/06 12:02:05;;;;;;;;;;;;;;;;;;6224669;22;19922;-91
2022/11/06 12:04:31;;;;;;;;;;;;;;;;;;6224012;22;19915;-91
2022/11/06 12:06:57;;;;;;;;;;;;;;;;;;6225241;22;19911;-91
2022/11/06 12:09:23;;;;;;;;;;;;;;;;;;6250512;22;19957;-91
2022/11/06 12:11:49;;;;;;;;;;;;;;;;;;6225052;22;19911;-91
2022/11/06 12:14:14;;;;;;;;;;;;;;;;;;6225416;22;19946;-91
2022/11/06 12:16:40;;;;;;;;;;;;;;;;;;6225360;22;20297;-91
2022/11/06 12:19:06;;;;;;;;;;;;;;;;;;6225179;22;19922;-91
2022/11/06 12:21:33;;;;;;;;;;;;;;;;;;6225729;22;19938;-92
2022/11/06 12:24:00;;;;;;;;;;;;;;;;;;6225208;22;19956;-92
2022/11/06 12:26:28;;;;;;;;;;;;;;;;;;6225662;22;19942;-91
2022/11/06 12:28:54;;;;;;;;;;;;;;;;;;6225276;22;19961;-91
2022/11/06 12:31:20;;;;;;;;;;;;;;;;;;6225373;22;19915;-91
2022/11/06 12:33:49;;;;;;;;;;;;;;;;;;6226139;22;19958;-95
2022/11/06 12:36:15;;;;;;;;;;;;;;;;;;6225811;22;19918;-90
2022/11/06 12:38:41;;;;;;;;;;;;;;;;;;6223968;22;19911;-93
2022/11/06 12:41:07;;;;;;;;;;;;;;;;;;6225054;22;19918;-92
2022/11/06 12:43:33;;;;;;;;;;;;;;;;;;6225317;22;19918;-91
2022/11/06 12:45:59;;;;;;;;;;;;;;;;;;6224862;22;20240;-91
2022/11/06 12:48:25;;;;;;;;;;;;;;;;;;6224468;22;19922;-90
2022/11/06 12:50:51;;;;;;;;;;;;;;;;;;6249962;22;19934;-91
2022/11/06 12:53:17;;;;;;;;;;;;;;;;;;6224049;22;19945;-93
2022/11/06 12:55:43;;;;;;;;;;;;;;;;;;6224846;22;20363;-91
2022/11/06 12:58:09;;;;;;;;;;;;;;;;;;6224397;22;19911;-90
2022/11/06 13:00:35;;;;;;;;;;;;;;;;;;6223697;22;19919;-92
2022/11/06 13:03:02;;;;;;;;;;;;;;;;;;6224567;22;19911;-92
2022/11/06 13:05:28;;;;;;;;;;;;;;;;;;6225227;22;20351;-91
2022/11/06 13:07:54;;;;;;;;;;;;;;;;;;6224780;22;19914;-91
2022/11/06 13:10:20;;;;;;;;;;;;;;;;;;6224981;22;19911;-91
2022/11/06 13:12:46;;;;;;;;;;;;;;;;;;6224959;22;19915;-91
2022/11/06 13:15:12;;;;;;;;;;;;;;;;;;6224771;22;19915;-91
2022/11/06 13:17:37;;;;;;;;;;;;;;;;;;6249286;22;19911;-92
2022/11/06 13:20:03;;;;;;;;;;;;;;;;;;6224427;22;19986;-90
2022/11/06 13:22:29;;;;;;;;;;;;;;;;;;6224511;22;19911;-92
2022/11/06 13:24:55;;;;;;;;;;;;;;;;;;6250423;22;19919;-91
2022/11/06 13:27:21;;;;;;;;;;;;;;;;;;6224713;22;19938;-91
2022/11/06 13:29:47;;;;;;;;;;;;;;;;;;6224575;22;19912;-91
2022/11/06 13:32:13;;;;;;;;;;;;;;;;;;6224270;22;19915;-91
2022/11/06 13:34:39;;;;;;;;;;;;;;;;;;6224709;22;19911;-91
2022/11/06 13:37:05;;;;;;;;;;;;;;;;;;6224615;22;19915;-92
2022/11/06 13:39:31;;;;;;;;;;;;;;;;;;6224842;22;19911;-91
2022/11/06 13:41:57;;;;;;;;;;;;;;;;;;6224896;22;20328;-91
2022/11/06 13:44:22;;;;;;;;;;;;;;;;;;6224550;22;19911;-91
2022/11/06 13:46:48;;;;;;;;;;;;;;;;;;6225147;22;19918;-91
2022/11/06 13:49:14;;;;;;;;;;;;;;;;;;6224308;22;19921;-92
2022/11/06 13:51:40;;;;;;;;;;;;;;;;;;6224503;22;20000;-92
2022/11/06 13:54:06;;;;;;;;;;;;;;;;;;6225055;22;19985;-92
2022/11/06 13:56:32;;;;;;;;;;;;;;;;;;6223266;22;19911;-92
2022/11/06 13:58:58;;;;;;;;;;;;;;;;;;6224889;22;19911;-91
2022/11/06 14:01:24;;;;;;;;;;;;;;;;;;6224733;22;20241;-91
2022/11/06 14:03:50;;;;;;;;;;;;;;;;;;6224908;22;19915;-92
2022/11/06 14:06:16;;;;;;;;;;;;;;;;;;6249541;22;19911;-92
2022/11/06 14:08:42;;;;;;;;;;;;;;;;;;6224795;22;20240;-92
2022/11/06 14:11:08;;;;;;;;;;;;;;;;;;6223694;22;19917;-91
2022/11/06 14:13:34;;;;;;;;;;;;;;;;;;6224068;22;19922;-91
2022/11/06 14:16:00;;;;;;;;;;;;;;;;;;6224673;22;19918;-91
2022/11/06 14:18:26;;;;;;;;;;;;;;;;;;6225117;22;19986;-92
2022/11/06 14:20:52;;;;;;;;;;;;;;;;;;6224549;22;19911;-91
2022/11/06 14:23:17;;;;;;;;;;;;;;;;;;6225006;22;19918;-91
2022/11/06 14:25:43;;;;;;;;;;;;;;;;;;6224819;22;19911;-92
2022/11/06 14:28:09;;;;;;;;;;;;;;;;;;6224726;22;19910;-91
2022/11/06 14:30:36;;;;;;;;;;;;;;;;;;6224343;22;19915;-92
2022/11/06 14:33:02;;;;;;;;;;;;;;;;;;6224688;22;20232;-91
2022/11/06 14:35:28;;;;;;;;;;;;;;;;;;6223578;22;19994;-91
2022/11/06 14:37:53;;;;;;;;;;;;;;;;;;6225913;22;19912;-90
2022/11/06 14:40:19;;;;;;;;;;;;;;;;;;6226457;22;19922;-91
2022/11/06 14:42:45;;;;;;;;;;;;;;;;;;6251327;22;20213;-92
2022/11/06 14:45:12;;;;;;;;;;;;;;;;;;6252007;22;19910;-91
2022/11/06 14:47:38;;;;;;;;;;;;;;;;;;6251269;22;19911;-92
2022/11/06 14:50:04;;;;;;;;;;;;;;;;;;6226411;22;19915;-91
2022/11/06 14:52:30;;;;;;;;;;;;;;;;;;6226184;22;19961;-92
2022/11/06 14:54:56;;;;;;;;;;;;;;;;;;6226650;22;19911;-92
2022/11/06 14:57:22;;;;;;;;;;;;;;;;;;6226339;22;19933;-91
2022/11/06 14:59:48;;;;;;;;;;;;;;;;;;6225832;22;19982;-92
2022/11/06 15:02:14;;;;;;;;;;;;;;;;;;6226056;22;19955;-93
2022/11/06 15:04:40;;;;;;;;;;;;;;;;;;6226157;22;19911;-91
2022/11/06 15:07:06;;;;;;;;;;;;;;;;;;6225997;22;19980;-91
2022/11/06 15:09:32;;;;;;;;;;;;;;;;;;6225913;22;20335;-92
2022/11/06 15:11:58;;;;;;;;;;;;;;;;;;6226235;22;19912;-92
2022/11/06 15:14:24;;;;;;;;;;;;;;;;;;6225347;22;19931;-91
2022/11/06 15:16:50;;;;;;;;;;;;;;;;;;6226035;22;20336;-91
2022/11/06 15:19:16;;;;;;;;;;;;;;;;;;6225888;22;19911;-92
2022/11/06 15:21:42;;;;;;;;;;;;;;;;;;6226175;22;19919;-92
2022/11/06 15:24:08;;;;;;;;;;;;;;;;;;6226169;22;19912;-91
2022/11/06 15:26:34;;;;;;;;;;;;;;;;;;6226404;22;19981;-91
2022/11/06 15:29:00;;;;;;;;;;;;;;;;;;6226060;22;20316;-91
2022/11/06 15:31:26;;;;;;;;;;;;;;;;;;6226073;22;20384;-92
2022/11/06 15:33:52;;;;;;;;;;;;;;;;;;6225797;22;19993;-91
2022/11/06 15:36:20;;;;;;;;;;;;;;;;;;6225997;22;19911;-90
2022/11/06 15:38:46;;;;;;;;;;;;;;;;;;6226227;22;19911;-91
2022/11/06 15:41:12;;;;;;;;;;;;;;;;;;6225492;22;19911;-91
2022/11/06 15:43:38;;;;;;;;;;;;;;;;;;6225699;22;19985;-92
2022/11/06 15:46:04;;;;;;;;;;;;;;;;;;6250413;22;19978;-91
2022/11/06 15:48:30;;;;;;;;;;;;;;;;;;6251072;22;19918;-91
2022/11/06 15:50:56;;;;;;;;;;;;;;;;;;6226132;22;19911;-91
2022/11/06 15:53:22;;;;;;;;;;;;;;;;;;6225627;22;20380;-91
2022/11/06 15:55:48;;;;;;;;;;;;;;;;;;6225029;22;19911;-91
2022/11/06 15:58:14;;;;;;;;;;;;;;;;;;6225405;22;19911;-91
2022/11/06 16:00:40;;;;;;;;;;;;;;;;;;6220320;23;19919;-91
2022/11/06 16:03:06;;;;;;;;;;;;;;;;;;6196864;22;19911;-90
2022/11/06 16:05:32;;;;;;;;;;;;;;;;;;6225066;22;20324;-91
2022/11/06 16:07:58;;;;;;;;;;;;;;;;;;6225665;22;20317;-91
2022/11/06 16:10:24;;;;;;;;;;;;;;;;;;6225774;22;19918;-91
2022/11/06 16:12:50;;;;;;;;;;;;;;;;;;6225160;22;19993;-92
2022/11/06 16:15:16;;;;;;;;;;;;;;;;;;6225299;22;19937;-91
2022/11/06 16:17:41;;;;;;;;;;;;;;;;;;6225237;22;19911;-91
2022/11/06 16:20:07;;;;;;;;;;;;;;;;;;6225119;22;19918;-91
2022/11/06 16:22:33;;;;;;;;;;;;;;;;;;6225694;22;19911;-90
2022/11/06 16:24:59;;;;;;;;;;;;;;;;;;6225142;22;20221;-91
2022/11/06 16:27:25;;;;;;;;;;;;;;;;;;6250363;22;19914;-90
2022/11/06 16:29:51;;;;;;;;;;;;;;;;;;6224994;22;19960;-91
2022/11/06 16:32:17;;;;;;;;;;;;;;;;;;6250135;22;19993;-90
2022/11/06 16:34:44;;;;;;;;;;;;;;;;;;6225021;22;20281;-91
2022/11/06 16:37:10;;;;;;;;;;;;;;;;;;6224919;22;20245;-91
2022/11/06 16:39:36;;;;;;;;;;;;;;;;;;6225188;22;19911;-91
2022/11/06 16:42:02;;;;;;;;;;;;;;;;;;6225138;22;19981;-90
2022/11/06 16:44:28;;;;;;;;;;;;;;;;;;6224547;22;19918;-92
2022/11/06 16:46:54;;;;;;;;;;;;;;;;;;6224884;22;19919;-91